Time;durP1;ratioP1;P1;durP2;ratioP2;P2;SDS_P1;SDS_P2;PMS_P1;PMS_P2;Temp;Humidity;BMP_temperature;BMP_pressure;BME280_temperature;BME280_humidity;BME280_pressure;Samples;Min_cycle;Max_cycle;Signal;HPM_P1;HPM_P2
2022/06/11 00:01:54;;;;;;;9.10;3.60;;;;;;;22.01;100.00;101962.97;5028724;28;20038;-47
2022/06/11 00:04:26;;;;;;;9.13;5.33;;;;;;;21.90;100.00;101970.13;5028580;28;20038;-53
2022/06/11 00:06:58;;;;;;;11.47;5.23;;;;;;;21.96;100.00;101962.88;5016486;28;20030;-47
2022/06/11 00:09:25;;;;;;;8.93;4.77;;;;;;;22.14;100.00;101971.91;5002639;28;20033;-50
2022/06/11 00:11:53;;;;;;;8.93;4.60;;;;;;;21.92;100.00;101970.72;5022755;28;20038;-52
2022/06/11 00:14:22;;;;;;;9.27;5.00;;;;;;;21.91;100.00;101966.34;5027182;28;20044;-48
2022/06/11 00:16:48;;;;;;;10.93;5.77;;;;;;;22.08;100.00;101968.25;5022079;28;20030;-49
2022/06/11 00:19:15;;;;;;;;;;;;;;;21.88;100.00;101975.00;5013639;28;20034;-49
2022/06/11 00:21:43;;;;;;;11.20;5.80;;;;;;;21.99;100.00;101969.75;5031748;28;19959;-47
2022/06/11 00:24:10;;;;;;;18.47;7.13;;;;;;;21.37;100.00;101969.38;5027460;28;20038;-52
2022/06/11 00:26:37;;;;;;;9.37;5.37;;;;;;;21.63;100.00;101972.59;5026813;28;20026;-53
2022/06/11 00:29:04;;;;;;;14.27;6.00;;;;;;;21.87;100.00;101965.16;5015912;28;20045;-53
2022/06/11 00:31:30;;;;;;;11.00;5.63;;;;;;;21.46;100.00;101962.47;5022871;28;20041;-53
2022/06/11 00:33:56;;;;;;;15.50;5.20;;;;;;;21.47;100.00;101968.75;5024577;28;20079;-51
2022/06/11 00:36:21;;;;;;;15.23;6.47;;;;;;;21.74;100.00;101960.84;5012804;28;20093;-46
2022/06/11 00:38:48;;;;;;;16.25;5.78;;;;;;;21.98;100.00;101966.19;4994751;28;20034;-49
2022/06/11 00:41:15;;;;;;;8.53;5.63;;;;;;;21.76;100.00;101963.34;5013098;28;20101;-51
2022/06/11 00:43:42;;;;;;;11.03;6.43;;;;;;;21.77;100.00;101956.81;5018404;28;20038;-55
2022/06/11 00:46:08;;;;;;;12.53;6.77;;;;;;;21.80;100.00;101959.06;5023423;28;20121;-54
2022/06/11 00:48:39;;;;;;;10.98;6.30;;;;;;;21.86;100.00;101958.06;5028318;28;20094;-52
2022/06/11 00:51:13;;;;;;;13.87;5.87;;;;;;;21.41;100.00;101958.81;5031020;28;20105;-51
2022/06/11 00:53:48;;;;;;;10.40;6.07;;;;;;;21.40;100.00;101955.28;5031747;28;20034;-49
2022/06/11 00:56:40;;;;;;;9.83;5.77;;;;;;;21.54;100.00;101958.56;5029979;28;20045;-50
2022/06/11 00:59:12;;;;;;;10.87;5.93;;;;;;;22.15;100.00;101949.88;5024694;28;20283;-52
2022/06/11 01:01:39;;;;;;;9.50;5.63;;;;;;;21.32;100.00;101953.78;5029294;28;20054;-50
2022/06/11 01:04:36;;;;;;;12.17;6.13;;;;;;;21.11;100.00;101965.28;5017121;28;20089;-53
2022/06/11 01:07:17;;;;;;;8.15;5.05;;;;;;;20.84;100.00;101955.72;5016977;28;20261;-49
2022/06/11 01:10:04;;;;;;;14.63;5.70;;;;;;;21.33;100.00;101955.41;5025293;28;20058;-49
2022/06/11 01:12:36;;;;;;;11.13;5.13;;;;;;;21.15;100.00;101950.13;5027962;28;20274;-51
2022/06/11 01:15:16;;;;;;;8.17;4.67;;;;;;;21.24;100.00;101951.44;5023239;28;20038;-53
2022/06/11 01:18:09;;;;;;;8.80;5.03;;;;;;;21.56;100.00;101959.13;5028183;28;20310;-52
2022/06/11 01:20:47;;;;;;;8.77;5.13;;;;;;;21.57;100.00;101943.63;5020275;28;20324;-49
2022/06/11 01:23:48;;;;;;;7.57;4.10;;;;;;;21.08;100.00;101946.72;5021700;28;20286;-54
2022/06/11 01:26:29;;;;;;;10.87;4.30;;;;;;;21.46;100.00;101942.63;5016357;28;20276;-49
2022/06/11 01:29:33;;;;;;;12.10;4.73;;;;;;;21.22;100.00;101963.59;5015031;28;20303;-53
2022/06/11 01:32:02;;;;;;;8.57;3.83;;;;;;;21.21;100.00;101946.44;5027405;28;20288;-51
2022/06/11 01:34:44;;;;;;;8.07;4.33;;;;;;;20.89;100.00;101952.31;5014776;28;20049;-49
2022/06/11 01:37:20;;;;;;;6.67;4.33;;;;;;;20.97;100.00;101946.50;5089379;28;20329;-53
2022/06/11 01:39:53;;;;;;;9.65;4.80;;;;;;;20.84;100.00;101944.84;5014209;28;20272;-49
2022/06/11 01:42:26;;;;;;;8.37;4.03;;;;;;;20.80;100.00;101945.59;5027282;28;20064;-51
2022/06/11 01:45:21;;;;;;;11.63;4.80;;;;;;;20.48;100.00;101950.28;5017460;28;20275;-51
2022/06/11 01:47:49;;;;;;;11.13;4.73;;;;;;;21.03;100.00;101947.44;5008976;28;20284;-52
2022/06/11 01:50:22;;;;;;;8.40;5.30;;;;;;;20.88;100.00;101950.66;5017406;28;20279;-50
2022/06/11 01:53:00;;;;;;;15.87;5.10;;;;;;;20.87;100.00;101949.00;5024596;28;20352;-47
2022/06/11 01:55:47;;;;;;;8.27;4.37;;;;;;;21.08;100.00;101944.81;5017643;28;20347;-50
2022/06/11 01:58:31;;;;;;;9.13;4.30;;;;;;;21.01;100.00;101944.13;5022673;28;20271;-53
2022/06/11 02:01:25;;;;;;;7.87;4.17;;;;;;;20.63;100.00;101946.25;5027673;28;20105;-51
2022/06/11 02:03:57;;;;;;;9.90;4.67;;;;;;;20.41;100.00;101946.84;5017084;28;20280;-54
2022/06/11 02:07:04;;;;;;;6.63;3.73;;;;;;;20.83;100.00;101945.13;5027719;28;20268;-52
2022/06/11 02:09:47;;;;;;;7.70;4.20;;;;;;;20.39;100.00;101940.81;5024132;28;20294;-51
2022/06/11 02:12:39;;;;;;;8.07;4.37;;;;;;;20.34;100.00;101935.28;5025726;28;20272;-53
2022/06/11 02:15:19;;;;;;;6.50;4.27;;;;;;;20.31;100.00;101938.47;5022648;28;20276;-54
2022/06/11 02:17:49;;;;;;;8.53;4.47;;;;;;;20.48;100.00;101950.28;5017607;28;20287;-50
2022/06/11 02:20:39;;;;;;;10.07;4.33;;;;;;;20.57;100.00;101942.59;5021008;28;20343;-51
2022/06/11 02:23:07;;;;;;;7.83;4.70;;;;;;;20.65;100.00;101943.31;5030175;28;20293;-50
2022/06/11 02:25:43;;;;;;;8.20;3.90;;;;;;;20.92;100.00;101954.53;5029900;28;20260;-50
2022/06/11 02:28:13;;;;;;;8.93;4.47;;;;;;;20.75;100.00;101952.50;5017987;28;20282;-53
2022/06/11 02:30:42;;;;;;;11.27;4.47;;;;;;;20.96;100.00;101955.72;5011184;28;20288;-51
2022/06/11 02:33:11;;;;;;;9.63;4.40;;;;;;;20.73;100.00;101957.34;5014742;28;20275;-46
2022/06/11 02:35:44;;;;;;;9.93;4.40;;;;;;;20.68;100.00;101949.09;5017914;28;20283;-48
2022/06/11 02:38:13;;;;;;;11.33;4.93;;;;;;;20.30;100.00;101947.66;5013750;28;20268;-56
2022/06/11 02:40:49;;;;;;;6.73;4.63;;;;;;;20.43;100.00;101957.50;5017105;28;20286;-48
2022/06/11 02:43:15;;;;;;;9.43;5.03;;;;;;;20.42;100.00;101962.09;5024498;28;20288;-52
2022/06/11 02:45:40;;;;;;;10.00;5.38;;;;;;;20.59;100.00;101969.53;5025703;28;20341;-53
2022/06/11 02:48:06;;;;;;;9.80;4.95;;;;;;;20.40;100.00;101963.38;5028381;28;20050;-52
2022/06/11 02:50:34;;;;;;;8.38;4.63;;;;;;;20.30;100.00;101958.53;5031347;28;20034;-51
2022/06/11 02:53:01;;;;;;;12.23;4.87;;;;;;;20.51;100.00;101967.16;5025612;28;20042;-52
2022/06/11 02:55:28;;;;;;;7.13;4.13;;;;;;;20.47;100.00;101962.19;5003791;28;20276;-56
2022/06/11 02:57:55;;;;;;;9.50;4.83;;;;;;;20.19;100.00;101957.47;5033228;28;20279;-52
2022/06/11 03:00:33;;;;;;;10.35;5.00;;;;;;;19.98;100.00;101969.66;5027274;28;20326;-48
2022/06/11 03:03:00;;;;;;;8.13;4.23;;;;;;;19.98;100.00;101965.06;5026288;28;20038;-50
2022/06/11 03:05:30;;;;;;;10.55;4.80;;;;;;;20.32;100.00;101968.09;5016741;28;20282;-50
2022/06/11 03:07:59;;;;;;;13.43;4.87;;;;;;;20.43;100.00;101980.03;5025259;28;20109;-50
2022/06/11 03:10:27;;;;;;;10.57;4.57;;;;;;;19.75;100.00;101976.63;5007811;28;20279;-48
2022/06/11 03:12:53;;;;;;;12.77;4.93;;;;;;;20.68;100.00;101991.78;5031428;28;20263;-50
2022/06/11 03:15:21;;;;;;;11.55;5.18;;;;;;;20.52;100.00;101994.09;5023409;28;20284;-49
2022/06/11 03:17:49;;;;;;;8.53;4.97;;;;;;;21.87;100.00;101994.31;5020983;28;20084;-48
2022/06/11 03:20:17;;;;;;;11.93;5.33;;;;;;;20.87;100.00;101992.50;5024246;28;20300;-48
2022/06/11 03:22:43;;;;;;;8.37;4.93;;;;;;;20.48;100.00;101992.94;5027081;28;20285;-50
2022/06/11 03:25:09;;;;;;;11.13;4.20;;;;;;;21.83;100.00;101993.16;5032973;28;20275;-48
2022/06/11 03:27:35;;;;;;;8.35;4.10;;;;;;;21.55;100.00;101992.84;5021525;28;20034;-51
2022/06/11 03:30:01;;;;;;;15.33;4.13;;;;;;;21.67;100.00;101992.00;5032974;28;20073;-50
2022/06/11 03:32:28;;;;;;;9.60;3.60;;;;;;;21.83;100.00;101998.59;5026142;28;20263;-49
2022/06/11 03:34:54;;;;;;;12.57;3.80;;;;;;;20.78;100.00;102006.44;5032933;28;20054;-50
2022/06/11 03:37:20;;;;;;;12.10;3.58;;;;;;;20.62;100.00;101996.25;5022709;28;20292;-49
2022/06/11 03:39:46;;;;;;;10.85;3.75;;;;;;;20.49;100.00;102006.25;5020974;28;20034;-49
2022/06/11 03:42:13;;;;;;;7.60;3.65;;;;;;;20.49;100.00;102008.16;5018947;28;20042;-51
2022/06/11 03:44:39;;;;;;;8.20;3.20;;;;;;;20.44;100.00;102010.75;5019761;28;20065;-49
2022/06/11 03:47:05;;;;;;;6.43;2.92;;;;;;;20.37;100.00;102024.44;5025033;28;20270;-51
2022/06/11 03:49:31;;;;;;;11.00;2.80;;;;;;;20.48;100.00;102017.38;5030428;28;20097;-49
2022/06/11 03:51:56;;;;;;;9.95;2.70;;;;;;;20.74;100.00;102024.25;5018395;28;20034;-53
2022/06/11 03:54:22;;;;;;;6.78;2.40;;;;;;;20.92;100.00;102031.50;5021294;28;20038;-51
2022/06/11 03:56:50;;;;;;;11.93;3.17;;;;;;;20.07;100.00;102028.03;5015078;28;20067;-51
2022/06/11 03:59:16;;;;;;;13.37;2.93;;;;;;;20.06;100.00;102031.78;5028538;28;20074;-49
2022/06/11 04:01:44;;;;;;;15.35;4.75;;;;;;;20.88;100.00;102030.34;5031107;28;20287;-54
2022/06/11 04:04:13;;;;;;;10.77;2.77;;;;;;;20.83;100.00;102032.09;5018995;28;20045;-51
2022/06/11 04:06:42;;;;;;;12.13;2.80;;;;;;;20.44;100.00;102043.38;5018850;28;20276;-51
2022/06/11 04:09:14;;;;;;;11.73;2.87;;;;;;;19.98;100.00;102040.25;5029012;28;20264;-51
2022/06/11 04:11:41;;;;;;;12.67;3.17;;;;;;;19.58;100.00;102045.09;5029233;28;20275;-48
2022/06/11 04:14:06;;;;;;;24.92;4.10;;;;;;;20.66;100.00;102037.38;5031650;28;20279;-49
2022/06/11 04:16:49;;;;;;;17.13;3.45;;;;;;;21.00;100.00;102033.06;5002903;28;20049;-49
2022/06/11 04:19:19;;;;;;;8.13;3.03;;;;;;;21.20;100.00;102040.00;5025097;28;20046;-49
2022/06/11 04:21:46;;;;;;;17.47;4.07;;;;;;;21.54;100.00;102048.34;5027507;28;20286;-53
2022/06/11 04:24:12;;;;;;;14.83;3.27;;;;;;;21.06;100.00;102048.41;5029366;28;20277;-51
2022/06/11 04:26:42;;;;;;;21.70;8.03;;;;;;;19.82;100.00;102047.91;5028129;28;20283;-50
2022/06/11 04:29:11;;;;;;;11.70;2.70;;;;;;;19.48;100.00;102058.34;5017468;28;20309;-52
2022/06/11 04:31:37;;;;;;;18.03;3.17;;;;;;;19.67;100.00;102059.19;5025510;28;20339;-51
2022/06/11 04:34:03;;;;;;;23.70;5.45;;;;;;;19.84;100.00;102059.41;5027916;28;20290;-51
2022/06/11 04:36:33;;;;;;;17.83;5.53;;;;;;;20.81;100.00;102056.78;5028560;28;20034;-47
2022/06/11 04:38:58;;;;;;;19.93;3.07;;;;;;;20.63;100.00;102065.84;5015880;28;20292;-51
2022/06/11 04:41:25;;;;;;;8.98;2.72;;;;;;;20.53;100.00;102054.69;5014385;28;20333;-50
2022/06/11 04:43:51;;;;;;;9.93;2.87;;;;;;;20.23;100.00;102066.44;5030437;28;20071;-51
2022/06/11 04:46:17;;;;;;;24.98;9.35;;;;;;;20.36;100.00;102068.97;5024862;28;20291;-49
2022/06/11 04:48:44;;;;;;;19.37;4.40;;;;;;;20.66;100.00;102068.09;5031649;28;20048;-52
2022/06/11 04:51:11;;;;;;;16.63;3.30;;;;;;;19.99;100.00;102071.75;5023818;28;20302;-52
2022/06/11 04:53:37;;;;;;;17.00;2.83;;;;;;;20.10;100.00;102067.44;5015823;28;20350;-50
2022/06/11 04:56:04;;;;;;;15.35;3.70;;;;;;;19.86;100.00;102070.03;5022981;28;20350;-50
2022/06/11 04:58:30;;;;;;;18.58;4.68;;;;;;;19.63;100.00;102066.13;5022711;28;20046;-50
2022/06/11 05:00:55;;;;;;;17.02;3.28;;;;;;;19.55;100.00;102069.16;5029185;28;20097;-50
2022/06/11 05:03:21;;;;;;;17.92;3.80;;;;;;;20.63;100.00;102066.66;5021174;28;20038;-50
2022/06/11 05:05:46;;;;;;;17.63;3.60;;;;;;;20.53;100.00;102076.44;5018423;28;20064;-51
2022/06/11 05:08:14;;;;;;;20.27;5.07;;;;;;;20.81;100.00;102083.16;5023020;28;20041;-48
2022/06/11 05:10:41;;;;;;;17.37;3.63;;;;;;;20.70;100.00;102072.00;5027121;28;20081;-51
2022/06/11 05:13:09;;;;;;;15.30;3.17;;;;;;;20.91;100.00;102072.53;5030979;28;20282;-48
2022/06/11 05:15:41;;;;;;;17.53;4.27;;;;;;;20.42;100.00;102070.75;5019704;28;20310;-50
2022/06/11 05:18:07;;;;;;;9.93;2.83;;;;;;;20.08;100.00;102077.72;5027469;28;20390;-53
2022/06/11 05:20:33;;;;;;;20.90;3.80;;;;;;;20.26;100.00;102068.69;5024094;28;20288;-50
2022/06/11 05:23:00;;;;;;;16.67;4.55;;;;;;;21.61;100.00;102076.25;5029366;28;20076;-53
2022/06/11 05:25:26;;;;;;;15.60;3.20;;;;;;;20.41;100.00;102081.84;5021064;28;20095;-49
2022/06/11 05:27:52;;;;;;;16.92;3.03;;;;;;;20.47;100.00;102079.03;5000192;28;20268;-51
2022/06/11 05:30:27;;;;;;;10.02;3.33;;;;;;;20.91;100.00;102075.25;5021738;28;20042;-53
2022/06/11 05:32:53;;;;;;;16.60;4.27;;;;;;;20.24;100.00;102081.66;5023540;28;20054;-48
2022/06/11 05:35:23;;;;;;;22.58;3.97;;;;;;;20.88;100.00;102079.28;5031424;28;20364;-49
2022/06/11 05:37:52;;;;;;;20.93;6.93;;;;;;;21.22;100.00;102089.56;5018726;28;20030;-48
2022/06/11 05:40:21;;;;;;;15.93;3.97;;;;;;;19.95;100.00;102093.09;5017031;28;20268;-50
2022/06/11 05:42:48;;;;;;;21.07;4.73;;;;;;;20.86;100.00;102094.97;5028492;28;20060;-51
2022/06/11 05:45:17;;;;;;;16.27;3.73;;;;;;;20.70;100.00;102092.91;5015481;28;20284;-50
2022/06/11 05:47:44;;;;;;;29.37;6.17;;;;;;;21.32;100.00;102106.13;5015569;28;20256;-52
2022/06/11 05:50:13;;;;;;;25.40;4.77;;;;;;;20.14;100.00;102102.06;5008398;28;20040;-47
2022/06/11 05:52:43;;;;;;;27.43;5.10;;;;;;;21.29;100.00;102094.88;5011256;28;20288;-52
2022/06/11 05:55:09;;;;;;;22.37;3.80;;;;;;;21.17;100.00;102092.16;5011465;28;20030;-49
2022/06/11 05:57:39;;;;;;;26.67;5.57;;;;;;;20.77;100.00;102093.63;5022640;28;20030;-49
2022/06/11 06:00:09;;;;;;;12.80;4.40;;;;;;;20.77;100.00;102089.03;5018919;28;20144;-50
2022/06/11 06:02:42;;;;;;;23.05;4.35;;;;;;;20.44;100.00;102090.38;5011401;28;20091;-52
2022/06/11 06:05:11;;;;;;;14.53;4.23;;;;;;;20.63;100.00;102101.16;5010931;28;20030;-50
2022/06/11 06:07:36;;;;;;;18.20;5.70;;;;;;;21.34;100.00;102104.00;5011236;28;20060;-52
2022/06/11 06:10:02;;;;;;;17.73;4.10;;;;;;;21.34;100.00;102098.53;5016098;28;20062;-49
2022/06/11 06:12:33;;;;;;;19.10;4.82;;;;;;;21.00;100.00;102100.19;5024428;28;20018;-49
2022/06/11 06:15:09;;;;;;;29.80;4.50;;;;;;;20.65;100.00;102101.75;5010905;28;20034;-47
2022/06/11 06:17:38;;;;;;;19.00;4.73;;;;;;;21.08;100.00;102109.91;5015711;28;20064;-46
2022/06/11 06:20:05;;;;;;;18.63;4.77;;;;;;;20.87;100.00;102098.53;5010736;28;20060;-48
2022/06/11 06:22:31;;;;;;;25.03;5.23;;;;;;;20.86;100.00;102102.31;5016707;28;20098;-52
2022/06/11 06:24:56;;;;;;;31.43;9.90;;;;;;;20.81;100.00;102099.47;5010717;28;20042;-49
2022/06/11 06:27:21;;;;;;;24.83;6.63;;;;;;;20.85;100.00;102112.34;5013819;28;20282;-51
2022/06/11 06:29:47;;;;;;;21.17;5.00;;;;;;;20.91;100.00;102108.72;5011026;28;20068;-47
2022/06/11 06:32:13;;;;;;;25.92;5.03;;;;;;;21.33;100.00;102107.78;5010565;28;20275;-51
2022/06/11 06:34:38;;;;;;;17.35;4.28;;;;;;;20.73;100.00;102115.00;5020407;28;20066;-47
2022/06/11 06:37:04;;;;;;;21.00;5.10;;;;;;;21.49;100.00;102116.28;5021977;28;20067;-50
2022/06/11 06:39:30;;;;;;;23.63;4.72;;;;;;;21.26;100.00;102120.69;5010668;28;20275;-47
2022/06/11 06:41:55;;;;;;;19.25;3.83;;;;;;;21.63;100.00;102128.56;5015607;28;20047;-51
2022/06/11 06:44:21;;;;;;;23.02;4.35;;;;;;;21.27;100.00;102125.06;5020110;28;20040;-48
2022/06/11 06:46:47;;;;;;;20.83;4.38;;;;;;;21.00;100.00;102108.34;5020980;28;20034;-51
2022/06/11 06:49:12;;;;;;;22.58;3.83;;;;;;;20.85;100.00;102120.50;5030225;28;20067;-50
2022/06/11 06:51:38;;;;;;;29.85;4.35;;;;;;;21.05;100.00;102117.47;5018582;28;20133;-51
2022/06/11 06:54:03;;;;;;;20.52;4.22;;;;;;;22.31;100.00;102125.34;5014044;28;20034;-49
2022/06/11 06:56:33;;;;;;;14.40;3.75;;;;;;;21.44;100.00;102125.16;5018176;28;20042;-47
2022/06/11 06:59:00;;;;;;;20.17;5.60;;;;;;;21.62;100.00;102132.34;5023734;28;20042;-49
2022/06/11 07:01:26;;;;;;;14.23;3.73;;;;;;;22.05;100.00;102140.34;5029086;28;20033;-52
2022/06/11 07:03:53;;;;;;;19.75;4.10;;;;;;;22.02;100.00;102128.03;5017489;28;20045;-54
2022/06/11 07:06:19;;;;;;;19.37;4.37;;;;;;;21.88;100.00;102124.75;5019423;28;20061;-53
2022/06/11 07:08:44;;;;;;;21.42;4.97;;;;;;;21.46;100.00;102131.19;5023449;28;20041;-50
2022/06/11 07:11:09;;;;;;;19.10;3.77;;;;;;;22.34;100.00;102127.56;5029669;28;20040;-52
2022/06/11 07:13:35;;;;;;;23.70;5.60;;;;;;;22.23;100.00;102135.78;5018822;28;20391;-50
2022/06/11 07:16:04;;;;;;;23.88;6.72;;;;;;;22.29;100.00;102129.38;5024637;28;20073;-51
2022/06/11 07:18:40;;;;;;;16.67;4.40;;;;;;;22.67;100.00;102132.53;5025103;28;20034;-52
2022/06/11 07:21:13;;;;;;;23.80;6.93;;;;;;;22.63;100.00;102140.38;5025445;28;20058;-50
2022/06/11 07:23:52;;;;;;;27.33;5.93;;;;;;;22.42;100.00;102139.97;5028648;28;20287;-52
2022/06/11 07:26:21;;;;;;;23.27;5.53;;;;;;;22.59;100.00;102122.84;5024256;28;20111;-49
2022/06/11 07:28:57;;;;;;;22.87;4.70;;;;;;;22.92;100.00;102124.78;5029792;28;20041;-48
2022/06/11 07:31:22;;;;;;;29.30;6.20;;;;;;;23.09;100.00;102142.22;5026958;28;20046;-47
2022/06/11 07:33:49;;;;;;;30.25;5.75;;;;;;;22.98;100.00;102138.53;5030339;28;20060;-53
2022/06/11 07:36:17;;;;;;;22.98;4.95;;;;;;;23.81;100.00;102140.56;5028998;28;20038;-52
2022/06/11 07:38:43;;;;;;;22.63;4.77;;;;;;;22.75;100.00;102127.50;5008522;28;20097;-51
2022/06/11 07:41:08;;;;;;;26.98;5.72;;;;;;;22.66;100.00;102139.91;5025004;28;20037;-49
2022/06/11 07:43:34;;;;;;;30.02;6.35;;;;;;;22.73;100.00;102135.09;5016349;28;20055;-53
2022/06/11 07:45:59;;;;;;;21.00;6.88;;;;;;;23.18;100.00;102127.94;5025079;28;20029;-49
2022/06/11 07:48:25;;;;;;;27.10;6.03;;;;;;;22.80;100.00;102125.94;5024156;28;20037;-57
2022/06/11 07:50:51;;;;;;;36.80;7.93;;;;;;;22.65;100.00;102121.88;5019379;28;20274;-49
2022/06/11 07:53:19;;;;;;;22.03;5.90;;;;;;;22.97;100.00;102134.13;5032489;28;20100;-49
2022/06/11 07:55:47;;;;;;;18.10;4.00;;;;;;;22.82;100.00;102131.97;5029473;28;20041;-49
2022/06/11 07:58:15;;;;;;;50.47;17.30;;;;;;;22.86;100.00;102131.22;5024070;28;20038;-49
2022/06/11 08:00:44;;;;;;;36.37;13.23;;;;;;;23.42;100.00;102141.41;5022312;28;20038;-52
2022/06/11 08:03:10;;;;;;;21.73;4.63;;;;;;;23.13;100.00;102141.47;5030588;28;20038;-52
2022/06/11 08:05:36;;;;;;;23.30;4.88;;;;;;;23.26;100.00;102137.59;5023916;28;20026;-53
2022/06/11 08:08:04;;;;;;;26.13;4.50;;;;;;;23.33;100.00;102143.72;5004641;28;20042;-52
2022/06/11 08:10:30;;;;;;;18.00;3.93;;;;;;;23.26;100.00;102148.50;5026277;28;20037;-50
2022/06/11 08:12:56;;;;;;;24.35;5.00;;;;;;;23.17;100.00;102141.81;5021846;28;20038;-49
2022/06/11 08:15:22;;;;;;;36.25;14.10;;;;;;;23.33;100.00;102149.19;5027059;28;20098;-48
2022/06/11 08:17:47;;;;;;;20.42;3.80;;;;;;;23.29;100.00;102145.28;5021759;28;20047;-51
2022/06/11 08:20:18;;;;;;;23.45;5.55;;;;;;;23.29;100.00;102153.47;5020044;28;20038;-50
2022/06/11 08:22:43;;;;;;;34.70;10.90;;;;;;;23.42;100.00;102152.31;5019262;28;20036;-49
2022/06/11 08:25:09;;;;;;;21.15;5.15;;;;;;;23.20;100.00;102149.50;5024828;28;20042;-51
2022/06/11 08:27:34;;;;;;;30.10;7.63;;;;;;;23.81;100.00;102153.38;5022312;28;20038;-46
2022/06/11 08:30:00;;;;;;;22.65;6.15;;;;;;;24.01;100.00;102152.81;5022791;28;20042;-48
2022/06/11 08:32:25;;;;;;;21.80;4.32;;;;;;;23.87;100.00;102158.66;5018550;28;20046;-51
2022/06/11 08:34:51;;;;;;;32.97;11.55;;;;;;;23.86;100.00;102153.44;5021449;28;20062;-49
2022/06/11 08:37:17;;;;;;;22.02;4.85;;;;;;;24.53;100.00;102164.34;5026901;28;20034;-51
2022/06/11 08:39:42;;;;;;;23.48;4.95;;;;;;;23.50;100.00;102156.50;5020691;28;20058;-51
2022/06/11 08:42:39;;;;;;;19.05;4.38;;;;;;;24.11;100.00;102166.63;5024457;28;20048;-50
2022/06/11 08:45:19;;;;;;;21.13;4.67;;;;;;;24.14;100.00;102166.09;5012240;28;20054;-52
2022/06/11 08:47:48;;;;;;;18.90;4.77;;;;;;;24.20;100.00;102159.59;5012350;28;20051;-51
2022/06/11 08:50:19;;;;;;;17.53;3.70;;;;;;;23.77;100.00;102164.00;5026099;28;20127;-50
2022/06/11 08:52:45;;;;;;;20.33;4.73;;;;;;;24.48;100.00;102167.84;5012145;28;20050;-48
2022/06/11 08:55:11;;;;;;;18.27;3.77;;;;;;;24.23;100.00;102155.56;5011822;28;20061;-51
2022/06/11 08:57:56;;;;;;;;;;;;;;;24.10;100.00;102169.59;5016746;28;20034;-50
2022/06/11 09:00:33;;;;;;;25.17;4.43;;;;;;;24.65;100.00;102173.19;5023197;28;19914;-48
2022/06/11 09:03:17;;;;;;;19.13;3.40;;;;;;;25.10;100.00;102162.13;5018564;28;20046;-49
2022/06/11 09:06:14;;;;;;;12.10;3.10;;;;;;;24.68;100.00;102169.97;5017943;28;20038;-52
2022/06/11 09:08:53;;;;;;;28.67;5.20;;;;;;;25.06;100.00;102172.78;5014911;28;20026;-52
2022/06/11 09:11:37;;;;;;;20.03;4.67;;;;;;;24.41;100.00;102162.56;5013639;28;20052;-47
2022/06/11 09:14:21;;;;;;;20.97;4.63;;;;;;;25.08;100.00;102154.19;5019376;28;20056;-50
2022/06/11 09:16:56;;;;;;;17.57;3.20;;;;;;;25.25;100.00;102164.13;5015780;28;20066;-51
2022/06/11 09:19:44;;;;;;;19.17;3.70;;;;;;;25.56;100.00;102154.22;5020630;28;20051;-54
2022/06/11 09:22:42;;;;;;;16.87;4.20;;;;;;;25.63;100.00;102160.31;5015178;28;20112;-53
2022/06/11 09:25:12;;;;;;;23.25;4.75;;;;;;;25.01;100.00;102176.28;5007482;28;20046;-51
2022/06/11 09:27:45;;;;;;;25.07;5.77;;;;;;;25.55;100.00;102168.22;5021521;28;20064;-47
2022/06/11 09:30:24;;;;;;;30.13;10.57;;;;;;;27.04;100.00;102169.72;5026257;28;20037;-50
2022/06/11 09:33:01;;;;;;;29.47;7.97;;;;;;;28.04;100.00;102174.72;5013773;28;20067;-49
2022/06/11 09:35:35;;;;;;;26.30;5.23;;;;;;;26.56;100.00;102178.19;5011754;28;20030;-53
2022/06/11 09:38:04;;;;;;;20.63;5.43;;;;;;;26.57;100.00;102166.13;5022489;28;20102;-50
2022/06/11 09:40:38;;;;;;;26.00;4.43;;;;;;;27.11;100.00;102174.94;5027666;28;20059;-48
2022/06/11 09:43:14;;;;;;;23.03;5.80;;;;;;;27.38;100.00;102173.81;5000104;28;20087;-51
2022/06/11 09:45:51;;;;;;;18.47;5.80;;;;;;;26.73;100.00;102175.19;5024694;28;20053;-53
2022/06/11 09:48:23;;;;;;;19.77;4.17;;;;;;;27.59;100.00;102178.19;5014718;28;20038;-47
2022/06/11 09:51:09;;;;;;;19.17;5.00;;;;;;;28.09;100.00;102182.13;5010653;28;20076;-52
2022/06/11 09:53:46;;;;;;;18.13;3.87;;;;;;;28.46;100.00;102203.66;5012029;28;20049;-49
2022/06/11 09:56:25;;;;;;;16.07;3.60;;;;;;;27.46;100.00;102184.25;5025014;28;20038;-52
2022/06/11 09:59:03;;;;;;;15.50;3.60;;;;;;;27.96;100.00;102194.53;5013605;28;20034;-50
2022/06/11 10:01:48;;;;;;;15.70;4.00;;;;;;;28.99;98.66;102184.88;5000311;28;20052;-50
2022/06/11 10:04:18;;;;;;;24.30;5.40;;;;;;;29.70;88.96;102190.78;5015430;28;20030;-48
2022/06/11 10:07:14;;;;;;;15.85;3.47;;;;;;;30.05;85.28;102191.47;5014319;28;20082;-52
2022/06/11 10:09:52;;;;;;;26.17;5.40;;;;;;;30.22;81.59;102192.06;5009558;28;20120;-53
2022/06/11 10:12:43;;;;;;;23.40;5.32;;;;;;;30.81;79.23;102195.38;5020754;28;20034;-46
2022/06/11 10:15:21;;;;;;;14.27;3.30;;;;;;;29.30;82.86;102190.91;5008201;28;20088;-52
2022/06/11 10:18:00;;;;;;;20.35;4.00;;;;;;;30.67;78.66;102195.28;5018997;28;20022;-50
2022/06/11 10:20:42;;;;;;;19.98;3.75;;;;;;;31.04;76.91;102199.09;5011789;28;20042;-54
2022/06/11 10:23:28;;;;;;;19.02;3.63;;;;;;;32.25;70.27;102207.56;5011939;28;20030;-48
2022/06/11 10:26:02;;;;;;;21.65;4.15;;;;;;;31.41;72.84;102206.78;5011102;28;20034;-50
2022/06/11 10:28:32;;;;;;;15.70;4.00;;;;;;;32.04;71.74;102208.00;5010912;28;20039;-54
2022/06/11 10:31:10;;;;;;;20.55;4.30;;;;;;;30.26;79.77;102206.94;5010554;28;20034;-51
2022/06/11 10:33:38;;;;;;;20.80;5.65;;;;;;;30.84;80.75;102204.97;5013369;28;20057;-49
2022/06/11 10:36:07;;;;;;;20.88;6.18;;;;;;;32.85;72.43;102210.31;5023881;28;20045;-52
2022/06/11 10:38:47;;;;;;;20.15;4.95;;;;;;;30.15;80.16;102209.00;5021809;28;20093;-52
2022/06/11 10:41:32;;;;;;;24.55;5.22;;;;;;;30.35;80.21;102210.66;5021569;28;20042;-50
2022/06/11 10:44:21;;;;;;;17.80;4.63;;;;;;;31.09;78.52;102205.66;5024500;28;20089;-51
2022/06/11 10:46:46;;;;;;;17.40;5.15;;;;;;;31.01;75.17;102209.91;5024209;28;20038;-49
2022/06/11 10:49:15;;;;;;;18.13;3.90;;;;;;;29.80;81.41;102206.38;5013706;28;20031;-51
2022/06/11 10:51:46;;;;;;;15.52;3.63;;;;;;;30.70;78.43;102203.00;5016548;28;20099;-52
2022/06/11 10:54:20;;;;;;;18.42;3.83;;;;;;;30.89;75.23;102202.94;5025891;28;20040;-50
2022/06/11 10:56:57;;;;;;;21.77;3.95;;;;;;;32.85;66.55;102202.00;5081866;28;20042;-52
2022/06/11 10:59:30;;;;;;;15.43;4.35;;;;;;;32.94;62.49;102200.13;5012605;28;20053;-54
2022/06/11 11:02:10;;;;;;;15.90;3.80;;;;;;;32.85;63.79;102202.00;5011159;28;20172;-51
2022/06/11 11:04:53;;;;;;;19.02;4.13;;;;;;;33.78;67.02;102201.50;5020871;28;20044;-52
2022/06/11 11:07:20;;;;;;;12.50;3.97;;;;;;;33.58;60.20;102207.31;5023568;28;20055;-51
2022/06/11 11:09:47;;;;;;;14.70;3.47;;;;;;;33.20;62.01;102204.19;5020465;28;20041;-51
2022/06/11 11:12:21;;;;;;;18.80;4.22;;;;;;;32.09;69.79;102204.31;5059093;28;20039;-52
2022/06/11 11:15:00;;;;;;;15.52;3.30;;;;;;;31.97;67.32;102204.84;5025267;28;20030;-50
2022/06/11 11:17:28;;;;;;;20.20;5.05;;;;;;;31.97;70.27;102193.78;5012671;28;20034;-48
2022/06/11 11:20:32;;;;;;;21.58;7.07;;;;;;;33.47;66.77;102195.69;5028083;28;20030;-48
2022/06/11 11:23:06;;;;;;;20.25;5.72;;;;;;;34.95;58.28;102194.50;5018245;28;20034;-52
2022/06/11 11:25:40;;;;;;;19.98;4.20;;;;;;;34.07;59.77;102206.47;5028233;28;20034;-51
2022/06/11 11:28:17;;;;;;;17.85;3.85;;;;;;;33.83;57.97;102202.16;5014014;28;20054;-52
2022/06/11 11:30:44;;;;;;;18.70;4.10;;;;;;;33.14;60.85;102193.25;5031418;28;20083;-53
2022/06/11 11:33:21;;;;;;;14.18;3.50;;;;;;;34.27;58.75;102179.22;5026700;28;20054;-48